createdAt,value
2023-05-26T00:21:18.495Z,26
2023-05-26T00:50:36.811Z,28
2023-05-26T01:19:58.174Z,28
2023-05-26T01:49:18.396Z,28
2023-05-26T02:18:42.954Z,29
2023-05-26T02:48:03.666Z,28
2023-05-26T03:17:15.934Z,29
2023-05-26T03:46:39.985Z,29
2023-05-26T04:15:52.748Z,28
2023-05-26T04:45:12.386Z,33
2023-05-26T05:13:53.193Z,32
2023-05-26T05:42:55.398Z,36
2023-05-26T06:12:05.386Z,33
2023-05-26T06:41:15.533Z,33
2023-05-26T07:10:26.430Z,34
2023-05-26T07:39:44.673Z,34
2023-05-26T08:09:03.937Z,34
2023-05-26T08:38:15.029Z,32
2023-05-26T09:07:34.475Z,30
2023-05-26T09:36:34.358Z,28
2023-05-26T10:05:48.904Z,31
2023-05-26T10:35:11.880Z,30
2023-05-26T11:04:32.111Z,33
2023-05-26T11:33:51.136Z,30
2023-05-26T12:03:20.042Z,29
2023-05-26T12:32:43.139Z,29
2023-05-26T13:02:06.037Z,26
2023-05-26T13:31:26.494Z,28
2023-05-26T14:00:32.257Z,26
2023-05-26T14:29:58.992Z,29
2023-05-26T14:59:24.370Z,27
2023-05-26T15:28:45.059Z,25
2023-05-26T15:58:07.714Z,22
2023-05-26T16:27:27.074Z,21
2023-05-26T16:56:47.004Z,21
2023-05-26T17:25:58.358Z,23
2023-05-26T17:55:11.010Z,25
2023-05-26T18:24:14.801Z,21
2023-05-26T18:53:24.293Z,22
2023-05-26T19:22:27.732Z,22
2023-05-26T19:51:32.649Z,24
2023-05-26T20:20:34.098Z,26
2023-05-26T20:49:37.173Z,25
2023-05-26T21:18:40.196Z,27
2023-05-26T21:47:52.455Z,24
2023-05-26T22:17:06.127Z,25
2023-05-26T22:46:24.313Z,26
2023-05-26T23:15:33.465Z,25
2023-05-26T23:44:55.818Z,26
